Terminal Aerodrome Forecast
Issued by NWS Central Illinois

Home | Current Version | Previous Version | Text Only | Print | Product List | Glossary On
Versions: 1 2 3 4 5 6 7 8 9 10 11 12 13 14 15 16 17 18 19 20
103
FTUS43 KILX 291126
TAFPIA
TAF
KPIA 291126Z 2912/3012 08010KT 3SM BR OVC005
     FM291700 08014G22KT P6SM VCSH OVC020
     FM292300 08013G21KT P6SM OVC025
     FM300300 08012G23KT 6SM BR VCSH OVC020
     FM300800 10015G23KT 5SM -SHRA VCTS OVC015CB=

USA.gov is the U.S. government's official web portal to all federal, state and local government web resources and services.